Time;durP1;ratioP1;P1;durP2;ratioP2;P2;SDS_P1;SDS_P2;PMS_P1;PMS_P2;Temp;Humidity;BMP_temperature;BMP_pressure;BME280_temperature;BME280_humidity;BME280_pressure;Samples;Min_cycle;Max_cycle;Signal;HPM_P1;HPM_P2
2023/10/03 00:03:25;;;;;;;37.05;20.10;;;;;;;13.84;nan;100805.31;10363948;28;20096;-75
2023/10/03 00:08:26;;;;;;;36.55;19.60;;;;;;;13.92;nan;100801.22;10346742;28;20149;-76
2023/10/03 00:13:27;;;;;;;46.40;19.98;;;;;;;13.92;nan;100781.06;10362303;28;20049;-76
2023/10/03 00:18:29;;;;;;;44.78;22.02;;;;;;;13.93;nan;100779.31;10377986;28;20133;-76
2023/10/03 00:23:30;;;;;;;35.38;21.15;;;;;;;13.94;nan;100774.13;10362188;28;20038;-75
2023/10/03 00:28:30;;;;;;;38.08;19.83;;;;;;;14.00;nan;100762.00;10361258;28;20096;-76
2023/10/03 00:33:31;;;;;;;47.30;21.25;;;;;;;14.04;nan;100746.34;10362829;28;20136;-76
2023/10/03 00:38:34;;;;;;;41.38;20.33;;;;;;;14.08;nan;100750.00;10360458;28;20132;-76
2023/10/03 00:43:34;;;;;;;43.08;20.77;;;;;;;14.15;nan;100749.34;10361467;28;20041;-76
2023/10/03 00:48:35;;;;;;;43.63;21.23;;;;;;;14.15;nan;100741.44;10357442;28;20057;-76
2023/10/03 00:53:36;;;;;;;45.92;22.73;;;;;;;14.22;nan;100734.59;10359764;28;20069;-77
2023/10/03 00:58:37;;;;;;;50.53;25.25;;;;;;;14.23;nan;100721.50;10345056;28;20050;-76
2023/10/03 01:03:37;;;;;;;37.65;20.70;;;;;;;14.25;nan;100697.84;10357242;28;20038;-76
2023/10/03 01:08:42;;;;;;;46.22;22.10;;;;;;;14.33;nan;100692.84;10360282;28;20037;-76
2023/10/03 01:13:47;;;;;;;45.80;20.45;;;;;;;14.35;nan;100686.75;10304466;28;20054;-76
2023/10/03 01:18:47;;;;;;;38.15;21.45;;;;;;;14.38;nan;100670.16;10277563;28;20038;-75
2023/10/03 01:23:48;;;;;;;39.72;21.38;;;;;;;14.34;nan;100660.41;10318827;28;20038;-76
2023/10/03 01:28:49;;;;;;;34.42;20.35;;;;;;;14.24;nan;100641.69;10319495;28;20062;-76
2023/10/03 01:33:49;;;;;;;41.25;21.95;;;;;;;14.26;nan;100636.47;10359567;28;20034;-75
2023/10/03 01:38:50;;;;;;;39.00;22.25;;;;;;;14.18;nan;100637.97;10358433;28;20041;-75
2023/10/03 01:43:50;;;;;;;42.25;24.13;;;;;;;14.15;nan;100627.38;10359793;28;20396;-76
2023/10/03 01:48:51;;;;;;;38.63;20.60;;;;;;;14.10;nan;100629.88;10360260;28;20530;-76
2023/10/03 01:53:51;;;;;;;46.10;21.27;;;;;;;14.11;nan;100613.25;10357460;28;20427;-76
2023/10/03 01:58:54;;;;;;;52.00;22.50;;;;;;;14.13;nan;100602.75;10358825;28;20046;-76
2023/10/03 02:03:55;;;;;;;41.25;22.10;;;;;;;14.13;nan;100602.75;10357538;28;20119;-76
2023/10/03 02:08:57;;;;;;;47.05;22.40;;;;;;;14.27;nan;100585.59;10361204;28;20121;-76
2023/10/03 02:13:59;;;;;;;39.25;20.42;;;;;;;14.29;nan;100586.53;10358966;28;20042;-76
2023/10/03 02:19:00;;;;;;;46.65;23.65;;;;;;;14.42;nan;100581.63;10356886;28;20037;-76
2023/10/03 02:24:00;;;;;;;37.67;19.95;;;;;;;14.60;nan;100565.44;10358778;28;20153;-76
2023/10/03 02:29:02;;;;;;;40.40;19.08;;;;;;;14.77;nan;100566.78;10357241;28;20050;-77
2023/10/03 02:34:02;;;;;;;24.60;14.50;;;;;;;15.08;nan;100564.03;10357038;28;20046;-77
2023/10/03 02:39:06;;;;;;;31.45;15.48;;;;;;;15.64;nan;100560.03;10358943;28;20108;-76
2023/10/03 02:44:07;;;;;;;27.40;15.60;;;;;;;16.12;nan;100540.81;10365875;28;20044;-76
2023/10/03 02:49:10;;;;;;;27.67;14.60;;;;;;;16.43;nan;100509.72;10366702;28;20092;-76
2023/10/03 02:54:10;;;;;;;24.13;14.18;;;;;;;16.69;nan;100497.84;10365185;28;20087;-76
2023/10/03 02:59:11;;;;;;;29.40;12.65;;;;;;;16.93;nan;100465.59;10366712;28;20438;-76
2023/10/03 03:04:15;;;;;;;24.55;14.07;;;;;;;17.00;nan;100433.16;10363018;28;20042;-77
2023/10/03 03:09:18;;;;;;;31.58;14.65;;;;;;;17.06;nan;100449.97;10361152;28;20424;-77
2023/10/03 03:14:19;;;;;;;25.38;12.68;;;;;;;17.36;nan;100472.41;10344165;28;20069;-77
2023/10/03 03:19:20;;;;;;;22.83;13.52;;;;;;;17.36;nan;100472.41;10347537;28;20057;-77
2023/10/03 03:24:28;;;;;;;27.87;14.97;;;;;;;17.12;nan;100495.91;10366709;28;20041;-77
2023/10/03 03:29:35;;;;;;;30.17;14.45;;;;;;;17.22;nan;100503.97;10363549;28;20038;-78
2023/10/03 03:34:36;;;;;;;27.08;14.93;;;;;;;17.47;nan;100521.06;10367615;28;20041;-78
2023/10/03 03:39:36;;;;;;;21.02;13.02;;;;;;;17.67;nan;100533.66;10362578;28;20151;-79
2023/10/03 03:44:37;;;;;;;27.00;14.00;;;;;;;17.73;nan;100539.03;10363242;28;20052;-77
2023/10/03 03:49:37;;;;;;;41.22;18.40;;;;;;;17.80;nan;100553.25;10362489;28;20037;-77
2023/10/03 03:54:39;;;;;;;29.92;16.65;;;;;;;17.85;nan;100556.84;10346614;28;20072;-77
2023/10/03 03:59:40;;;;;;;40.33;17.35;;;;;;;18.04;nan;100556.25;10358145;28;20042;-77
2023/10/03 04:04:40;;;;;;;35.38;17.08;;;;;;;17.98;nan;100549.94;10362973;28;20125;-77
2023/10/03 04:09:41;;;;;;;28.25;13.93;;;;;;;17.98;nan;100552.59;10363930;28;20429;-76
2023/10/03 04:14:42;;;;;;;28.58;14.38;;;;;;;17.72;nan;100556.69;10363136;28;20124;-77
2023/10/03 04:19:42;;;;;;;21.70;12.50;;;;;;;17.80;nan;100551.47;10378496;28;20056;-80
2023/10/03 04:24:42;;;;;;;25.40;13.80;;;;;;;17.79;nan;100562.94;10363851;28;20180;-77
2023/10/03 04:29:44;;;;;;;24.92;12.60;;;;;;;17.77;nan;100564.69;10362646;28;20490;-77
2023/10/03 04:34:45;;;;;;;27.42;12.85;;;;;;;17.61;nan;100567.13;10361938;28;20072;-77
2023/10/03 04:39:46;;;;;;;27.40;13.23;;;;;;;17.69;nan;100579.56;10360579;28;20038;-77
2023/10/03 04:44:47;;;;;;;23.73;12.15;;;;;;;17.61;nan;100588.28;10337913;28;20677;-76
2023/10/03 04:49:48;;;;;;;19.42;10.60;;;;;;;17.61;nan;100605.94;10357815;28;20042;-76
2023/10/03 04:54:48;;;;;;;23.48;12.23;;;;;;;17.71;nan;100586.66;10361034;28;20135;-77
2023/10/03 04:59:49;;;;;;;20.77;10.95;;;;;;;17.63;nan;100592.72;10361571;28;20396;-77
2023/10/03 05:04:50;;;;;;;20.13;11.38;;;;;;;17.57;nan;100612.91;10360314;28;20121;-77
2023/10/03 05:09:51;;;;;;;20.55;11.27;;;;;;;17.62;nan;100602.41;10360168;28;20058;-76
2023/10/03 05:14:51;;;;;;;24.60;12.10;;;;;;;17.69;nan;100635.13;10353659;28;20066;-77
2023/10/03 05:19:55;;;;;;;24.73;11.38;;;;;;;17.79;nan;100625.59;10360373;28;20085;-76
2023/10/03 05:24:56;;;;;;;19.63;10.40;;;;;;;17.72;nan;100636.09;10359321;28;20046;-77
2023/10/03 05:29:58;;;;;;;23.98;11.05;;;;;;;17.77;nan;100657.31;10360053;28;20161;-76
2023/10/03 05:34:59;;;;;;;22.02;9.77;;;;;;;17.83;nan;100656.53;10338272;28;20042;-77
2023/10/03 05:40:11;;;;;;;18.58;10.90;;;;;;;17.94;nan;100670.81;10339941;28;20033;-76
2023/10/03 05:45:14;;;;;;;16.30;9.93;;;;;;;17.89;nan;100689.25;10357230;28;20041;-78
2023/10/03 05:50:16;;;;;;;16.08;8.75;;;;;;;17.86;nan;100691.84;10356678;28;20044;-77
2023/10/03 05:55:16;;;;;;;13.40;5.97;;;;;;;17.77;nan;100686.44;10357132;28;20045;-76
2023/10/03 06:00:18;;;;;;;14.30;6.18;;;;;;;17.65;nan;100713.59;10357443;28;20034;-77
2023/10/03 06:05:21;;;;;;;15.38;7.88;;;;;;;17.44;nan;100695.59;10373385;28;20594;-76
2023/10/03 06:10:22;;;;;;;11.77;7.13;;;;;;;17.23;nan;100702.31;10373921;28;20046;-77
2023/10/03 06:15:24;;;;;;;13.00;7.10;;;;;;;17.19;nan;100737.50;10352409;28;20065;-76
2023/10/03 06:20:24;;;;;;;13.77;7.28;;;;;;;17.24;nan;100708.50;10359092;28;20379;-77
2023/10/03 06:25:25;;;;;;;11.98;6.35;;;;;;;17.26;nan;100686.50;10359722;28;20109;-77
2023/10/03 06:30:26;;;;;;;12.88;5.93;;;;;;;17.24;nan;100762.28;10358275;28;20065;-77
2023/10/03 06:35:27;;;;;;;12.03;7.93;;;;;;;17.30;nan;100772.97;10382534;28;20391;-78
2023/10/03 06:40:28;;;;;;;12.00;7.20;;;;;;;17.37;nan;100738.69;10369726;28;20057;-76
2023/10/03 06:45:29;;;;;;;14.90;6.18;;;;;;;17.48;nan;100736.25;10367663;28;20188;-75
2023/10/03 06:50:30;;;;;;;9.95;6.25;;;;;;;17.59;nan;100759.38;10360122;28;20037;-76
2023/10/03 06:55:39;;;;;;;14.15;7.43;;;;;;;17.58;nan;100770.81;10356362;28;20081;-75
2023/10/03 07:00:40;;;;;;;14.35;7.00;;;;;;;17.72;nan;100771.06;10359591;28;20176;-77
2023/10/03 07:05:41;;;;;;;12.52;6.65;;;;;;;17.86;nan;100770.41;10358964;28;20061;-76
2023/10/03 07:10:41;;;;;;;9.00;5.72;;;;;;;18.00;nan;100765.34;10356656;28;20034;-79
2023/10/03 07:15:42;;;;;;;10.30;6.32;;;;;;;18.02;nan;100760.97;10355945;28;20520;-77
2023/10/03 07:20:43;;;;;;;14.48;6.80;;;;;;;18.08;nan;100749.59;10372828;28;20030;-78
2023/10/03 07:25:43;;;;;;;14.40;7.18;;;;;;;18.10;nan;100769.91;10358312;28;20083;-78
2023/10/03 07:30:45;;;;;;;15.65;6.53;;;;;;;18.06;nan;100765.44;10365181;28;20056;-77
2023/10/03 07:35:46;;;;;;;11.38;6.60;;;;;;;17.99;nan;100772.38;10362540;28;20096;-77
2023/10/03 07:40:47;;;;;;;10.25;6.07;;;;;;;17.97;nan;100791.75;10380418;28;20131;-78
2023/10/03 07:45:50;;;;;;;13.27;8.05;;;;;;;17.86;nan;100799.53;10364405;28;20045;-78
2023/10/03 07:50:50;;;;;;;13.02;7.00;;;;;;;17.80;nan;100802.06;10363177;28;20056;-77
2023/10/03 07:55:51;;;;;;;11.98;6.10;;;;;;;17.62;nan;100814.13;10362342;28;20038;-76
2023/10/03 08:00:51;;;;;;;11.98;6.53;;;;;;;17.57;nan;100821.97;10379810;28;20121;-77
2023/10/03 08:05:57;;;;;;;14.13;7.35;;;;;;;17.57;nan;100834.31;10364024;28;20042;-77
2023/10/03 08:10:58;;;;;;;13.15;5.53;;;;;;;17.62;nan;100837.94;10375911;28;20049;-77
2023/10/03 08:15:59;;;;;;;10.07;6.40;;;;;;;17.60;nan;100848.47;10346620;28;20038;-77
2023/10/03 08:21:03;;;;;;;14.95;7.22;;;;;;;17.56;nan;100869.56;10377533;28;20068;-78
2023/10/03 08:26:04;;;;;;;13.63;7.03;;;;;;;17.65;nan;100874.13;10362784;28;20033;-77
2023/10/03 08:31:06;;;;;;;13.02;7.47;;;;;;;17.73;nan;100867.22;10363975;28;20414;-77
2023/10/03 08:36:14;;;;;;;9.43;6.18;;;;;;;17.92;nan;100857.88;10362337;28;20034;-78
2023/10/03 08:41:22;;;;;;;11.82;6.90;;;;;;;17.89;nan;100865.75;10361891;28;20045;-77
2023/10/03 08:46:24;;;;;;;13.10;7.85;;;;;;;17.81;nan;100867.38;10376883;28;20383;-77
2023/10/03 08:51:25;;;;;;;11.43;7.18;;;;;;;17.79;nan;100866.47;10360254;28;20042;-79
2023/10/03 08:56:25;;;;;;;10.88;6.40;;;;;;;17.78;nan;100868.19;10358684;28;20089;-77
2023/10/03 09:01:26;;;;;;;12.52;7.88;;;;;;;17.85;nan;100848.91;10358903;28;20038;-77
2023/10/03 09:06:26;;;;;;;17.58;8.15;;;;;;;17.64;nan;100880.28;10357816;28;20056;-77
2023/10/03 09:11:28;;;;;;;18.15;8.02;;;;;;;17.48;nan;100890.56;10362050;28;20128;-78
2023/10/03 09:16:29;;;;;;;11.65;8.38;;;;;;;17.12;nan;100937.47;10360566;28;20474;-77
2023/10/03 09:21:29;;;;;;;14.07;7.88;;;;;;;16.99;nan;100962.72;10354397;28;20038;-76
2023/10/03 09:26:46;;;;;;;11.07;8.43;;;;;;;16.94;nan;100966.09;10360892;28;20444;-76
2023/10/03 09:31:47;;;;;;;15.30;7.90;;;;;;;16.83;nan;100969.41;10374109;28;20090;-76
2023/10/03 09:36:48;;;;;;;13.57;10.10;;;;;;;16.61;nan;100989.09;10359526;28;20478;-78
2023/10/03 09:41:52;;;;;;;16.17;10.55;;;;;;;16.48;nan;101008.16;10358914;28;20117;-76
2023/10/03 09:46:53;;;;;;;19.83;9.85;;;;;;;16.57;nan;101005.75;10336944;28;20070;-79
2023/10/03 09:51:53;;;;;;;15.63;10.15;;;;;;;16.69;nan;101021.03;10356925;28;20046;-78
2023/10/03 09:56:55;;;;;;;16.35;9.30;;;;;;;16.77;nan;101015.91;10357139;28;20491;-77
2023/10/03 10:01:56;;;;;;;16.45;9.20;;;;;;;17.06;nan;100989.31;10336579;28;20044;-77
2023/10/03 10:07:29;;;;;;;12.90;8.38;;;;;;;17.20;nan;100997.56;10393810;28;20532;-76
2023/10/03 10:12:30;;;;;;;;;;;;;;;16.97;nan;101005.88;10328302;28;20038;-78
2023/10/03 10:17:45;;;;;;;7.20;3.83;;;;;;;16.87;nan;101004.72;10358605;28;20374;-76
2023/10/03 10:28:20;;;;;;;3.22;0.95;;;;;;;17.64;nan;101029.41;10358470;28;20056;-79
2023/10/03 10:33:22;;;;;;;3.38;1.13;;;;;;;18.20;nan;101039.34;10354263;28;20464;-78
2023/10/03 10:38:31;;;;;;;4.83;1.27;;;;;;;18.46;nan;101057.50;10371667;28;20363;-77
2023/10/03 10:43:34;;;;;;;3.05;1.17;;;;;;;18.10;nan;101081.53;10371068;28;20782;-77
2023/10/03 10:48:41;;;;;;;3.20;1.10;;;;;;;17.60;nan;101083.13;10354538;28;20052;-77
2023/10/03 10:53:46;;;;;;;4.28;1.00;;;;;;;17.47;nan;101071.34;10355011;28;20045;-77
2023/10/03 10:59:01;;;;;;;2.33;1.00;;;;;;;17.59;nan;101076.03;10357060;28;20128;-77
2023/10/03 11:04:03;;;;;;;6.20;1.60;;;;;;;17.77;nan;101096.69;10349231;28;20544;-77
2023/10/03 11:09:04;;;;;;;2.63;1.38;;;;;;;17.67;nan;101102.66;10366853;28;20038;-76
2023/10/03 11:14:04;;;;;;;3.75;1.10;;;;;;;17.01;nan;101105.56;10365389;28;20046;-78
2023/10/03 11:19:06;;;;;;;4.95;2.10;;;;;;;16.48;nan;101101.50;10381203;28;20049;-76
2023/10/03 11:24:18;;;;;;;4.20;0.82;;;;;;;16.22;nan;101112.25;10379302;28;20041;-76
2023/10/03 11:29:36;;;;;;;4.75;1.10;;;;;;;16.21;nan;101122.75;10361207;28;20044;-77
2023/10/03 11:34:38;;;;;;;4.45;0.80;;;;;;;16.34;nan;101146.03;10363556;28;20450;-77
2023/10/03 11:39:38;;;;;;;2.88;0.75;;;;;;;16.21;nan;101165.00;10363756;28;20119;-77
2023/10/03 11:44:39;;;;;;;1.88;0.80;;;;;;;15.65;nan;101195.88;10362198;28;20099;-78
2023/10/03 11:49:40;;;;;;;3.47;1.58;;;;;;;15.51;nan;101213.00;10359786;28;20075;-79
2023/10/03 11:54:40;;;;;;;7.05;0.65;;;;;;;15.61;nan;101230.00;10363952;28;20129;-77
2023/10/03 11:59:41;;;;;;;3.22;1.70;;;;;;;15.85;nan;101243.09;10362343;28;20482;-77
2023/10/03 12:04:41;;;;;;;5.65;1.00;;;;;;;16.69;nan;101243.00;10363900;28;20413;-78
2023/10/03 12:09:43;;;;;;;3.70;1.42;;;;;;;17.92;nan;101233.84;10364468;28;20046;-78
2023/10/03 12:14:45;;;;;;;17.42;2.42;;;;;;;20.45;nan;101250.84;10360834;28;20033;-76
2023/10/03 12:19:47;;;;;;;9.20;2.58;;;;;;;20.25;nan;101284.22;10340236;28;20042;-76
2023/10/03 12:24:48;;;;;;;3.63;1.83;;;;;;;18.51;nan;101274.91;10336679;28;20144;-77
2023/10/03 12:29:49;;;;;;;4.22;1.52;;;;;;;17.48;nan;101268.94;10358372;28;20042;-77
2023/10/03 12:34:49;;;;;;;4.63;1.65;;;;;;;18.01;nan;101273.81;10377029;28;20061;-75
2023/10/03 12:39:50;;;;;;;3.45;1.67;;;;;;;20.96;nan;101300.25;10364501;28;20124;-75
2023/10/03 12:44:52;;;;;;;7.85;1.48;;;;;;;22.03;nan;101334.09;10386451;28;20125;-77
2023/10/03 12:49:53;;;;;;;6.40;1.35;;;;;;;20.15;nan;101339.88;10391610;28;20042;-77
2023/10/03 12:54:53;;;;;;;5.85;1.73;;;;;;;17.88;nan;101322.00;10360048;28;20121;-78
2023/10/03 12:59:54;;;;;;;4.22;2.33;;;;;;;16.95;nan;101336.25;10360822;28;20038;-77
2023/10/03 13:04:56;;;;;;;6.78;2.50;;;;;;;16.63;nan;101338.84;10360709;28;20088;-76
2023/10/03 13:09:57;;;;;;;;;;;;;;;20.80;nan;101357.66;10323173;28;20065;-75
2023/10/03 13:14:57;;;;;;;8.80;2.13;;;;;;;21.52;nan;101386.03;10327824;28;19967;-75
2023/10/03 13:19:59;;;;;;;4.13;2.33;;;;;;;19.31;nan;101384.41;10360759;28;20425;-75
2023/10/03 13:25:00;;;;;;;4.40;1.52;;;;;;;18.37;nan;101396.47;10361787;28;20409;-75
2023/10/03 13:30:00;;;;;;;5.45;2.10;;;;;;;16.78;nan;101411.50;10322458;28;20042;-76
2023/10/03 13:35:02;;;;;;;4.32;2.00;;;;;;;17.20;nan;101432.19;10342231;28;20076;-75
2023/10/03 13:40:06;;;;;;;;;;;;;;;16.42;nan;101432.44;10364671;28;20496;-75
2023/10/03 13:45:07;;;;;;;7.78;3.08;;;;;;;15.99;nan;101455.66;10360863;28;19929;-75
2023/10/03 13:50:12;;;;;;;8.23;2.67;;;;;;;16.13;nan;101465.81;10356048;28;20045;-75
2023/10/03 13:55:14;;;;;;;7.45;2.28;;;;;;;15.83;nan;101477.03;10358064;28;20109;-77
2023/10/03 14:00:15;;;;;;;7.43;3.17;;;;;;;15.55;nan;101498.03;10356909;28;20076;-77
2023/10/03 14:05:16;;;;;;;11.38;3.20;;;;;;;16.84;nan;101496.28;10374200;28;20113;-77
2023/10/03 14:10:18;;;;;;;8.02;3.13;;;;;;;16.82;nan;101506.81;10334229;28;20046;-79
2023/10/03 14:15:20;;;;;;;6.22;2.45;;;;;;;15.71;nan;101544.38;10316930;28;20038;-77
2023/10/03 14:20:23;;;;;;;5.68;2.25;;;;;;;15.05;nan;101549.72;10318296;28;20045;-77
2023/10/03 14:25:23;;;;;;;7.72;2.63;;;;;;;15.37;nan;101565.91;10370084;28;20046;-77
2023/10/03 14:30:24;;;;;;;7.93;1.70;;;;;;;14.77;nan;101580.22;10357182;28;20049;-77
2023/10/03 14:35:25;;;;;;;6.95;3.58;;;;;;;15.54;nan;101593.84;10373722;28;20022;-78
2023/10/03 14:40:26;;;;;;;7.17;3.13;;;;;;;15.12;nan;101594.84;10356173;28;20465;-77
2023/10/03 14:45:28;;;;;;;6.43;2.40;;;;;;;15.99;nan;101594.66;10355459;28;20288;-78
2023/10/03 14:50:28;;;;;;;8.52;4.10;;;;;;;17.63;nan;101601.00;10355497;28;20125;-79
2023/10/03 14:55:29;;;;;;;5.95;3.63;;;;;;;18.29;nan;101620.59;10357150;28;20038;-77
2023/10/03 15:00:29;;;;;;;6.65;3.58;;;;;;;18.47;nan;101631.72;10346809;28;20461;-78
2023/10/03 15:05:30;;;;;;;8.68;3.22;;;;;;;18.36;nan;101646.41;10349260;28;20069;-79
2023/10/03 15:10:31;;;;;;;6.65;3.20;;;;;;;18.19;nan;101667.16;10346621;28;20052;-79
2023/10/03 15:15:32;;;;;;;8.60;2.60;;;;;;;18.03;nan;101672.00;10354648;28;20040;-77
2023/10/03 15:20:33;;;;;;;6.87;2.53;;;;;;;17.03;nan;101686.44;10372399;28;20065;-78
2023/10/03 15:25:34;;;;;;;6.05;2.10;;;;;;;16.37;nan;101684.97;10357530;28;20292;-80
2023/10/03 15:30:41;;;;;;;6.80;2.28;;;;;;;15.84;nan;101690.00;10352053;28;20045;-80
2023/10/03 15:35:42;;;;;;;5.28;2.20;;;;;;;15.69;nan;101696.47;10353423;28;20405;-79
2023/10/03 15:40:42;;;;;;;7.70;2.47;;;;;;;15.33;nan;101704.69;10352948;28;20045;-78
2023/10/03 15:45:43;;;;;;;6.35;2.83;;;;;;;15.11;nan;101716.97;10333962;28;20034;-77
2023/10/03 15:50:43;;;;;;;21.60;3.80;;;;;;;14.85;nan;101717.56;10364121;28;20512;-78
2023/10/03 15:55:44;;;;;;;23.75;2.85;;;;;;;14.57;nan;101724.22;10360116;28;20570;-79
2023/10/03 16:00:44;;;;;;;7.43;2.70;;;;;;;14.21;nan;101741.03;10361366;28;20092;-80
2023/10/03 16:05:47;;;;;;;9.02;2.83;;;;;;;14.01;nan;101753.25;10361084;28;20030;-79
2023/10/03 16:10:48;;;;;;;6.43;2.53;;;;;;;13.88;nan;101757.03;10362912;28;20052;-78
2023/10/03 16:15:49;;;;;;;6.13;2.13;;;;;;;13.80;nan;101769.81;10371546;28;20034;-78
2023/10/03 16:20:50;;;;;;;4.55;2.15;;;;;;;13.67;nan;101770.03;10362139;28;20041;-77
2023/10/03 16:25:50;;;;;;;7.72;2.83;;;;;;;13.56;nan;101793.16;10361291;28;20122;-77
2023/10/03 16:30:51;;;;;;;6.20;2.40;;;;;;;13.35;nan;101799.09;10347259;28;20475;-77
2023/10/03 16:35:59;;;;;;;12.98;4.85;;;;;;;13.22;nan;101816.88;10346859;28;20046;-78
2023/10/03 16:41:03;;;;;;;8.65;3.25;;;;;;;13.04;nan;101824.72;10349545;28;20073;-79
2023/10/03 16:46:08;;;;;;;7.30;2.63;;;;;;;12.89;nan;101843.19;10359595;28;20106;-79
2023/10/03 16:51:09;;;;;;;4.85;2.08;;;;;;;12.71;nan;101847.44;10375958;28;20045;-80
2023/10/03 16:56:10;;;;;;;9.45;2.80;;;;;;;12.52;nan;101861.28;10322859;28;20110;-78
2023/10/03 17:01:11;;;;;;;5.93;2.60;;;;;;;12.31;nan;101881.16;10332197;28;20082;-80
2023/10/03 17:06:12;;;;;;;7.60;2.30;;;;;;;12.32;nan;101900.44;10337312;28;20046;-80
2023/10/03 17:11:13;;;;;;;5.30;2.40;;;;;;;12.18;nan;101904.91;10336044;28;20058;-79
2023/10/03 17:16:14;;;;;;;9.23;2.88;;;;;;;12.11;nan;101908.91;10334459;28;20030;-77
2023/10/03 17:21:17;;;;;;;7.00;2.60;;;;;;;12.06;nan;101918.22;10357423;28;20054;-77
2023/10/03 17:26:18;;;;;;;5.53;2.58;;;;;;;12.13;nan;101922.09;10377240;28;20061;-78
2023/10/03 17:31:20;;;;;;;6.20;3.13;;;;;;;12.06;nan;101925.16;10375369;28;20121;-78
2023/10/03 17:36:22;;;;;;;3.88;1.83;;;;;;;12.02;nan;101937.22;10359936;28;20037;-76
2023/10/03 17:41:22;;;;;;;7.17;2.20;;;;;;;11.89;nan;101948.66;10350285;28;20516;-78
2023/10/03 17:46:23;;;;;;;9.13;2.35;;;;;;;11.62;nan;101948.81;10321810;28;20046;-78
2023/10/03 17:51:24;;;;;;;7.68;2.72;;;;;;;11.36;nan;101948.13;10359757;28;20029;-78
2023/10/03 17:56:25;;;;;;;8.53;2.37;;;;;;;11.10;nan;101959.63;10352599;28;20052;-79
2023/10/03 18:01:26;;;;;;;8.68;2.63;;;;;;;10.95;nan;101959.53;10353592;28;20065;-78
2023/10/03 18:06:27;;;;;;;8.63;4.47;;;;;;;10.72;nan;101966.81;10337505;28;20089;-77
2023/10/03 18:11:27;;;;;;;6.45;2.97;;;;;;;10.50;nan;101965.41;10350990;28;20609;-79
2023/10/03 18:16:28;;;;;;;9.88;2.65;;;;;;;10.43;nan;101968.44;10354484;28;20046;-79
2023/10/03 18:21:29;;;;;;;6.07;2.83;;;;;;;10.37;nan;101979.41;10354019;28;20478;-77
2023/10/03 18:26:30;;;;;;;5.78;3.08;;;;;;;10.19;nan;101994.75;10372479;28;20038;-78
2023/10/03 18:31:30;;;;;;;9.98;2.80;;;;;;;10.26;nan;102003.94;10357921;28;20545;-78
2023/10/03 18:36:31;;;;;;;7.53;3.42;;;;;;;10.21;nan;102003.63;10349515;28;20132;-77
2023/10/03 18:41:31;;;;;;;9.43;2.63;;;;;;;10.12;nan;102017.00;10360919;28;20065;-79
2023/10/03 18:46:32;;;;;;;6.97;2.85;;;;;;;9.93;nan;102019.16;10352312;28;20397;-78
2023/10/03 18:51:32;;;;;;;15.95;5.18;;;;;;;9.87;nan;102021.34;10341362;28;20117;-78
2023/10/03 18:56:34;;;;;;;8.40;3.38;;;;;;;9.79;nan;102039.09;10354367;28;20085;-78
2023/10/03 19:01:35;;;;;;;5.57;2.67;;;;;;;9.69;nan;102042.81;10389034;28;20042;-77
2023/10/03 19:06:35;;;;;;;7.30;2.85;;;;;;;9.72;nan;102057.78;10370827;28;20038;-78
2023/10/03 19:11:36;;;;;;;5.72;2.97;;;;;;;9.68;nan;102059.28;10352456;28;20065;-79
2023/10/03 19:16:36;;;;;;;10.68;4.35;;;;;;;9.63;nan;102065.91;10356656;28;20054;-78
2023/10/03 19:21:37;;;;;;;7.35;3.20;;;;;;;9.72;nan;102074.38;10358951;28;20139;-78
2023/10/03 19:26:38;;;;;;;11.48;3.08;;;;;;;9.81;nan;102075.03;10351691;28;20116;-78
2023/10/03 19:31:38;;;;;;;12.95;3.22;;;;;;;9.91;nan;102075.69;10379249;28;20173;-78
2023/10/03 19:36:39;;;;;;;10.77;4.53;;;;;;;9.99;nan;102077.13;10364559;28;20038;-79
2023/10/03 19:41:40;;;;;;;6.20;3.10;;;;;;;10.14;nan;102072.03;10380993;28;20112;-79
2023/10/03 19:46:41;;;;;;;6.13;2.53;;;;;;;10.13;nan;102078.06;10365333;28;20038;-78
2023/10/03 19:51:41;;;;;;;9.50;2.63;;;;;;;10.13;nan;102085.91;10361445;28;20037;-80
2023/10/03 19:56:42;;;;;;;10.48;2.47;;;;;;;10.16;nan;102078.25;10363178;28;20117;-80
2023/10/03 20:01:42;;;;;;;5.40;2.55;;;;;;;10.39;nan;102069.41;10365113;28;20869;-78
2023/10/03 20:06:43;;;;;;;4.95;2.38;;;;;;;10.65;nan;102062.41;10349708;28;20080;-78
2023/10/03 20:11:44;;;;;;;5.90;2.88;;;;;;;10.76;nan;102065.72;10363142;28;20570;-78
2023/10/03 20:16:45;;;;;;;6.38;2.75;;;;;;;10.91;nan;102083.25;10373330;28;20104;-79
2023/10/03 20:21:45;;;;;;;11.57;4.93;;;;;;;10.98;nan;102095.94;10364376;28;20084;-79
2023/10/03 20:26:48;;;;;;;6.30;3.30;;;;;;;11.04;nan;102087.59;10363253;28;20121;-78
2023/10/03 20:31:48;;;;;;;6.03;2.97;;;;;;;10.93;nan;102110.44;10370928;28;20397;-77
2023/10/03 20:36:49;;;;;;;9.48;4.95;;;;;;;10.92;nan;102106.00;10372166;28;20042;-78
2023/10/03 20:41:50;;;;;;;9.02;2.63;;;;;;;11.02;nan;102111.97;10363354;28;20037;-79
2023/10/03 20:46:51;;;;;;;8.35;4.05;;;;;;;11.37;nan;102111.56;10363480;28;20489;-78
2023/10/03 20:51:52;;;;;;;6.60;3.03;;;;;;;11.63;nan;102110.56;10393690;28;20037;-78
2023/10/03 20:56:52;;;;;;;10.20;3.55;;;;;;;11.58;nan;102115.53;10370253;28;20132;-79
2023/10/03 21:01:53;;;;;;;7.35;3.05;;;;;;;11.51;nan;102120.28;10362319;28;20397;-78
2023/10/03 21:06:54;;;;;;;8.57;3.78;;;;;;;11.24;nan;102126.47;10377168;28;20113;-78
2023/10/03 21:11:55;;;;;;;5.57;2.53;;;;;;;11.13;nan;102133.63;10360558;28;20482;-79
2023/10/03 21:16:55;;;;;;;6.78;2.85;;;;;;;10.99;nan;102144.91;10378107;28;20041;-79
2023/10/03 21:21:57;;;;;;;8.27;3.58;;;;;;;10.98;nan;102148.34;10373471;28;20065;-78
2023/10/03 21:26:57;;;;;;;14.85;5.72;;;;;;;11.09;nan;102152.56;10355822;28;20046;-78
2023/10/03 21:31:58;;;;;;;8.05;2.60;;;;;;;11.15;nan;102166.06;10358120;28;20046;-77
2023/10/03 21:36:59;;;;;;;10.05;3.90;;;;;;;11.00;nan;102168.59;10357687;28;20058;-77
2023/10/03 21:42:00;;;;;;;6.72;3.05;;;;;;;11.19;nan;102168.91;10363272;28;20434;-77
2023/10/03 21:47:01;;;;;;;7.90;3.07;;;;;;;11.10;nan;102174.47;10359137;28;20041;-78
2023/10/03 21:52:04;;;;;;;6.18;3.85;;;;;;;11.04;nan;102167.06;10361017;28;20451;-77
2023/10/03 21:57:04;;;;;;;7.20;3.08;;;;;;;11.06;nan;102169.81;10359300;28;20394;-78
2023/10/03 22:02:05;;;;;;;9.15;2.78;;;;;;;11.00;nan;102171.22;10376087;28;20068;-78
2023/10/03 22:07:08;;;;;;;6.55;3.50;;;;;;;11.11;nan;102163.16;10358182;28;20441;-78
2023/10/03 22:12:10;;;;;;;8.98;3.17;;;;;;;11.02;nan;102167.00;10343746;28;20445;-77
2023/10/03 22:17:11;;;;;;;10.10;3.17;;;;;;;10.94;nan;102170.81;10358675;28;20033;-78
2023/10/03 22:22:11;;;;;;;7.60;2.80;;;;;;;10.76;nan;102170.47;10356879;28;20389;-78
2023/10/03 22:27:12;;;;;;;9.05;2.97;;;;;;;10.87;nan;102179.06;10357513;28;20121;-78
2023/10/03 22:32:12;;;;;;;5.25;2.38;;;;;;;10.91;nan;102175.84;10392031;28;20053;-78
2023/10/03 22:37:13;;;;;;;6.68;3.05;;;;;;;10.75;nan;102175.63;10368219;28;20401;-77
2023/10/03 22:42:13;;;;;;;8.43;3.85;;;;;;;10.57;nan;102177.06;10365084;28;20064;-77
2023/10/03 22:47:14;;;;;;;10.25;3.63;;;;;;;10.50;nan;102185.28;10350138;28;20056;-77
2023/10/03 22:52:15;;;;;;;6.70;2.45;;;;;;;10.41;nan;102182.97;10333520;28;20182;-77
2023/10/03 22:57:16;;;;;;;11.27;3.78;;;;;;;10.30;nan;102181.28;10327335;28;20039;-78
2023/10/03 23:02:17;;;;;;;5.57;2.53;;;;;;;10.31;nan;102183.09;10336718;28;20048;-77
2023/10/03 23:07:19;;;;;;;8.77;3.20;;;;;;;10.31;nan;102180.47;10379208;28;20113;-76
2023/10/03 23:12:20;;;;;;;11.30;4.10;;;;;;;10.22;nan;102183.34;10383179;28;20048;-76
2023/10/03 23:17:20;;;;;;;8.77;3.03;;;;;;;10.24;nan;102184.34;10354319;28;20038;-76
2023/10/03 23:22:21;;;;;;;9.90;2.58;;;;;;;10.19;nan;102187.47;10326424;28;20125;-76
2023/10/03 23:27:23;;;;;;;7.38;3.08;;;;;;;10.19;nan;102188.34;10328119;28;20082;-77
2023/10/03 23:32:24;;;;;;;6.55;2.30;;;;;;;10.10;nan;102201.72;10327095;28;20041;-77
2023/10/03 23:37:24;;;;;;;6.85;2.78;;;;;;;10.14;nan;102201.13;10333735;28;20050;-78